sensor_id;sensor_type;location;lat;lon;timestamp;temperature;humidity
52189;DHT22;38162;45.926;13.608;2023-03-21T00:01:35;10.60;95.80
52189;DHT22;38162;45.926;13.608;2023-03-21T00:04:01;10.60;95.70
52189;DHT22;38162;45.926;13.608;2023-03-21T00:06:27;10.60;95.60
52189;DHT22;38162;45.926;13.608;2023-03-21T00:08:53;10.60;95.50
52189;DHT22;38162;45.926;13.608;2023-03-21T00:11:18;10.60;95.50
52189;DHT22;38162;45.926;13.608;2023-03-21T00:13:44;10.50;95.50
52189;DHT22;38162;45.926;13.608;2023-03-21T00:16:12;10.50;95.50
52189;DHT22;38162;45.926;13.608;2023-03-21T00:18:44;10.50;95.50
52189;DHT22;38162;45.926;13.608;2023-03-21T00:21:13;10.50;95.50
52189;DHT22;38162;45.926;13.608;2023-03-21T00:23:43;10.50;95.40
52189;DHT22;38162;45.926;13.608;2023-03-21T00:26:09;10.50;95.50
52189;DHT22;38162;45.926;13.608;2023-03-21T00:28:36;10.50;95.40
52189;DHT22;38162;45.926;13.608;2023-03-21T00:31:02;10.40;95.40
52189;DHT22;38162;45.926;13.608;2023-03-21T00:33:28;10.40;95.60
52189;DHT22;38162;45.926;13.608;2023-03-21T00:35:54;10.40;95.30
52189;DHT22;38162;45.926;13.608;2023-03-21T00:38:21;10.40;95.20
52189;DHT22;38162;45.926;13.608;2023-03-21T00:40:47;10.30;95.10
52189;DHT22;38162;45.926;13.608;2023-03-21T00:43:13;10.30;95.10
52189;DHT22;38162;45.926;13.608;2023-03-21T00:45:42;10.30;95.20
52189;DHT22;38162;45.926;13.608;2023-03-21T00:48:08;10.30;95.20
52189;DHT22;38162;45.926;13.608;2023-03-21T00:50:36;10.30;95.20
52189;DHT22;38162;45.926;13.608;2023-03-21T00:53:03;10.30;95.20
52189;DHT22;38162;45.926;13.608;2023-03-21T00:55:29;10.20;95.20
52189;DHT22;38162;45.926;13.608;2023-03-21T00:57:55;10.20;95.40
52189;DHT22;38162;45.926;13.608;2023-03-21T01:00:21;10.20;95.30
52189;DHT22;38162;45.926;13.608;2023-03-21T01:02:47;10.20;95.40
52189;DHT22;38162;45.926;13.608;2023-03-21T01:05:27;10.20;95.40
52189;DHT22;38162;45.926;13.608;2023-03-21T01:08:28;10.20;95.40
52189;DHT22;38162;45.926;13.608;2023-03-21T01:10:55;10.20;95.40
52189;DHT22;38162;45.926;13.608;2023-03-21T01:13:23;10.20;95.40
52189;DHT22;38162;45.926;13.608;2023-03-21T01:15:52;10.10;95.30
52189;DHT22;38162;45.926;13.608;2023-03-21T01:18:21;10.10;95.40
52189;DHT22;38162;45.926;13.608;2023-03-21T01:20:47;10.10;95.30
52189;DHT22;38162;45.926;13.608;2023-03-21T01:23:14;10.10;95.60
52189;DHT22;38162;45.926;13.608;2023-03-21T01:25:40;10.10;95.40
52189;DHT22;38162;45.926;13.608;2023-03-21T01:28:06;10.00;95.30
52189;DHT22;38162;45.926;13.608;2023-03-21T01:30:32;10.00;95.30
52189;DHT22;38162;45.926;13.608;2023-03-21T01:32:58;10.00;95.30
52189;DHT22;38162;45.926;13.608;2023-03-21T01:35:24;10.00;95.30
52189;DHT22;38162;45.926;13.608;2023-03-21T01:37:50;10.00;95.30
52189;DHT22;38162;45.926;13.608;2023-03-21T01:40:26;9.90;95.20
52189;DHT22;38162;45.926;13.608;2023-03-21T01:42:52;9.90;95.00
52189;DHT22;38162;45.926;13.608;2023-03-21T01:48:21;9.80;95.00
52189;DHT22;38162;45.926;13.608;2023-03-21T01:50:49;9.80;95.10
52189;DHT22;38162;45.926;13.608;2023-03-21T01:55:43;9.90;96.80
52189;DHT22;38162;45.926;13.608;2023-03-21T01:58:09;9.80;99.10
52189;DHT22;38162;45.926;13.608;2023-03-21T02:00:36;9.80;95.90
52189;DHT22;38162;45.926;13.608;2023-03-21T02:03:06;9.70;95.40
52189;DHT22;38162;45.926;13.608;2023-03-21T02:06:11;9.70;95.50
52189;DHT22;38162;45.926;13.608;2023-03-21T02:08:39;9.70;95.40
52189;DHT22;38162;45.926;13.608;2023-03-21T02:11:06;9.60;95.40
52189;DHT22;38162;45.926;13.608;2023-03-21T02:13:31;9.60;95.40
52189;DHT22;38162;45.926;13.608;2023-03-21T02:16:13;9.60;95.50
52189;DHT22;38162;45.926;13.608;2023-03-21T02:41:21;9.40;95.00
52189;DHT22;38162;45.926;13.608;2023-03-21T02:43:54;9.30;95.00
52189;DHT22;38162;45.926;13.608;2023-03-21T02:46:27;9.30;95.10
52189;DHT22;38162;45.926;13.608;2023-03-21T02:49:13;9.30;95.20
52189;DHT22;38162;45.926;13.608;2023-03-21T02:51:42;9.30;95.30
52189;DHT22;38162;45.926;13.608;2023-03-21T02:54:15;9.30;95.60
52189;DHT22;38162;45.926;13.608;2023-03-21T02:56:43;9.30;95.60
52189;DHT22;38162;45.926;13.608;2023-03-21T02:59:10;9.30;95.80
52189;DHT22;38162;45.926;13.608;2023-03-21T03:01:37;9.30;95.80
52189;DHT22;38162;45.926;13.608;2023-03-21T03:04:03;9.30;95.70
52189;DHT22;38162;45.926;13.608;2023-03-21T03:06:52;9.30;95.70
52189;DHT22;38162;45.926;13.608;2023-03-21T03:09:27;9.30;96.00
52189;DHT22;38162;45.926;13.608;2023-03-21T03:17:53;9.20;95.80
52189;DHT22;38162;45.926;13.608;2023-03-21T03:20:32;9.20;95.90
52189;DHT22;38162;45.926;13.608;2023-03-21T03:23:04;9.20;95.90
52189;DHT22;38162;45.926;13.608;2023-03-21T03:25:54;9.20;95.90
52189;DHT22;38162;45.926;13.608;2023-03-21T03:28:26;9.20;95.90
52189;DHT22;38162;45.926;13.608;2023-03-21T03:30:54;9.20;95.90
52189;DHT22;38162;45.926;13.608;2023-03-21T03:33:21;9.20;95.90
52189;DHT22;38162;45.926;13.608;2023-03-21T03:35:49;9.20;95.90
52189;DHT22;38162;45.926;13.608;2023-03-21T03:38:16;9.20;95.90
52189;DHT22;38162;45.926;13.608;2023-03-21T03:40:48;9.20;95.90
52189;DHT22;38162;45.926;13.608;2023-03-21T03:43:22;9.10;95.90
52189;DHT22;38162;45.926;13.608;2023-03-21T03:45:53;9.10;95.90
52189;DHT22;38162;45.926;13.608;2023-03-21T03:48:27;9.10;95.90
52189;DHT22;38162;45.926;13.608;2023-03-21T03:51:11;9.10;95.90
52189;DHT22;38162;45.926;13.608;2023-03-21T03:53:49;9.10;95.80
52189;DHT22;38162;45.926;13.608;2023-03-21T03:56:16;9.10;95.70
52189;DHT22;38162;45.926;13.608;2023-03-21T03:58:42;9.00;95.70
52189;DHT22;38162;45.926;13.608;2023-03-21T04:01:08;9.00;95.50
52189;DHT22;38162;45.926;13.608;2023-03-21T04:03:36;9.00;95.40
52189;DHT22;38162;45.926;13.608;2023-03-21T04:06:04;9.00;95.40
52189;DHT22;38162;45.926;13.608;2023-03-21T04:08:30;9.00;95.40
52189;DHT22;38162;45.926;13.608;2023-03-21T04:10:56;8.90;95.30
52189;DHT22;38162;45.926;13.608;2023-03-21T04:13:22;8.90;95.40
52189;DHT22;38162;45.926;13.608;2023-03-21T04:15:48;8.90;95.40
52189;DHT22;38162;45.926;13.608;2023-03-21T04:18:14;8.90;95.40
52189;DHT22;38162;45.926;13.608;2023-03-21T04:20:39;8.90;95.50
52189;DHT22;38162;45.926;13.608;2023-03-21T04:23:06;9.00;99.90
52189;DHT22;38162;45.926;13.608;2023-03-21T04:25:34;8.90;95.50
52189;DHT22;38162;45.926;13.608;2023-03-21T04:27:59;8.90;95.50
52189;DHT22;38162;45.926;13.608;2023-03-21T04:30:25;8.80;95.50
52189;DHT22;38162;45.926;13.608;2023-03-21T04:32:51;8.80;95.50
52189;DHT22;38162;45.926;13.608;2023-03-21T04:35:22;8.80;95.70
52189;DHT22;38162;45.926;13.608;2023-03-21T04:37:48;8.70;95.60
52189;DHT22;38162;45.926;13.608;2023-03-21T04:40:14;8.70;95.60
52189;DHT22;38162;45.926;13.608;2023-03-21T04:42:43;8.70;95.60
52189;DHT22;38162;45.926;13.608;2023-03-21T04:45:09;8.70;95.60
52189;DHT22;38162;45.926;13.608;2023-03-21T04:47:35;8.70;95.60
52189;DHT22;38162;45.926;13.608;2023-03-21T04:50:01;8.70;95.60
52189;DHT22;38162;45.926;13.608;2023-03-21T04:52:26;8.70;95.50
52189;DHT22;38162;45.926;13.608;2023-03-21T04:54:52;8.70;95.40
52189;DHT22;38162;45.926;13.608;2023-03-21T04:57:18;8.70;97.40
52189;DHT22;38162;45.926;13.608;2023-03-21T04:59:44;8.70;97.50
52189;DHT22;38162;45.926;13.608;2023-03-21T05:02:10;8.50;94.80
52189;DHT22;38162;45.926;13.608;2023-03-21T05:04:37;8.50;94.90
52189;DHT22;38162;45.926;13.608;2023-03-21T05:07:03;8.40;94.90
52189;DHT22;38162;45.926;13.608;2023-03-21T05:09:28;8.60;95.90
52189;DHT22;38162;45.926;13.608;2023-03-21T05:11:54;8.40;94.80
52189;DHT22;38162;45.926;13.608;2023-03-21T05:14:22;8.40;94.80
52189;DHT22;38162;45.926;13.608;2023-03-21T05:16:48;8.40;94.80
52189;DHT22;38162;45.926;13.608;2023-03-21T05:19:24;8.30;94.70
52189;DHT22;38162;45.926;13.608;2023-03-21T05:21:58;8.30;94.70
52189;DHT22;38162;45.926;13.608;2023-03-21T05:24:24;8.30;94.80
52189;DHT22;38162;45.926;13.608;2023-03-21T05:26:50;8.30;94.80
52189;DHT22;38162;45.926;13.608;2023-03-21T05:29:18;8.30;95.10
52189;DHT22;38162;45.926;13.608;2023-03-21T05:31:44;8.20;94.80
52189;DHT22;38162;45.926;13.608;2023-03-21T05:34:11;8.20;94.80
52189;DHT22;38162;45.926;13.608;2023-03-21T05:36:37;8.20;94.90
52189;DHT22;38162;45.926;13.608;2023-03-21T05:39:03;8.20;95.00
52189;DHT22;38162;45.926;13.608;2023-03-21T05:41:29;8.20;95.10
52189;DHT22;38162;45.926;13.608;2023-03-21T05:43:55;8.20;95.00
52189;DHT22;38162;45.926;13.608;2023-03-21T05:46:21;8.20;95.10
52189;DHT22;38162;45.926;13.608;2023-03-21T05:48:47;8.20;95.20
52189;DHT22;38162;45.926;13.608;2023-03-21T05:51:13;8.20;95.40
52189;DHT22;38162;45.926;13.608;2023-03-21T05:53:38;8.20;95.40
52189;DHT22;38162;45.926;13.608;2023-03-21T05:56:04;8.20;95.50
52189;DHT22;38162;45.926;13.608;2023-03-21T05:58:30;8.20;95.60
52189;DHT22;38162;45.926;13.608;2023-03-21T06:00:56;8.30;95.90
52189;DHT22;38162;45.926;13.608;2023-03-21T06:03:22;8.30;95.70
52189;DHT22;38162;45.926;13.608;2023-03-21T06:05:48;8.30;95.80
52189;DHT22;38162;45.926;13.608;2023-03-21T06:08:13;8.30;95.80
52189;DHT22;38162;45.926;13.608;2023-03-21T06:10:39;8.30;95.90
52189;DHT22;38162;45.926;13.608;2023-03-21T06:13:05;8.30;96.00
52189;DHT22;38162;45.926;13.608;2023-03-21T06:15:31;8.30;96.20
52189;DHT22;38162;45.926;13.608;2023-03-21T06:17:57;8.40;96.30
52189;DHT22;38162;45.926;13.608;2023-03-21T06:20:23;8.40;96.40
52189;DHT22;38162;45.926;13.608;2023-03-21T06:22:48;8.40;96.70
52189;DHT22;38162;45.926;13.608;2023-03-21T06:25:14;8.40;96.90
52189;DHT22;38162;45.926;13.608;2023-03-21T06:27:40;8.50;97.00
52189;DHT22;38162;45.926;13.608;2023-03-21T06:30:06;8.60;97.20
52189;DHT22;38162;45.926;13.608;2023-03-21T06:32:33;8.60;97.40
52189;DHT22;38162;45.926;13.608;2023-03-21T06:34:58;8.60;97.50
52189;DHT22;38162;45.926;13.608;2023-03-21T06:37:24;8.70;97.50
52189;DHT22;38162;45.926;13.608;2023-03-21T06:39:51;8.80;97.50
52189;DHT22;38162;45.926;13.608;2023-03-21T06:42:17;8.80;97.90
52189;DHT22;38162;45.926;13.608;2023-03-21T06:44:43;8.80;97.70
52189;DHT22;38162;45.926;13.608;2023-03-21T06:47:09;8.90;97.90
52189;DHT22;38162;45.926;13.608;2023-03-21T06:49:35;8.90;97.90
52189;DHT22;38162;45.926;13.608;2023-03-21T06:52:00;9.00;98.00
52189;DHT22;38162;45.926;13.608;2023-03-21T06:54:26;9.10;98.10
52189;DHT22;38162;45.926;13.608;2023-03-21T06:56:52;9.20;98.20
52189;DHT22;38162;45.926;13.608;2023-03-21T06:59:18;9.20;98.40
52189;DHT22;38162;45.926;13.608;2023-03-21T07:01:45;9.30;98.50
52189;DHT22;38162;45.926;13.608;2023-03-21T07:04:11;9.30;98.60
52189;DHT22;38162;45.926;13.608;2023-03-21T07:06:36;9.40;98.70
52189;DHT22;38162;45.926;13.608;2023-03-21T07:09:03;9.50;98.80
52189;DHT22;38162;45.926;13.608;2023-03-21T07:11:30;9.60;98.90
52189;DHT22;38162;45.926;13.608;2023-03-21T07:13:56;9.70;98.80
52189;DHT22;38162;45.926;13.608;2023-03-21T07:16:22;9.80;98.50
52189;DHT22;38162;45.926;13.608;2023-03-21T07:18:50;9.80;98.30
52189;DHT22;38162;45.926;13.608;2023-03-21T07:21:16;9.90;98.10
52189;DHT22;38162;45.926;13.608;2023-03-21T07:23:42;10.00;98.00
52189;DHT22;38162;45.926;13.608;2023-03-21T07:26:08;10.00;97.90
52189;DHT22;38162;45.926;13.608;2023-03-21T07:28:34;10.20;97.80
52189;DHT22;38162;45.926;13.608;2023-03-21T07:31:03;10.20;97.70
52189;DHT22;38162;45.926;13.608;2023-03-21T07:33:29;10.30;97.50
52189;DHT22;38162;45.926;13.608;2023-03-21T07:35:56;10.40;97.50
52189;DHT22;38162;45.926;13.608;2023-03-21T07:38:23;10.50;97.40
52189;DHT22;38162;45.926;13.608;2023-03-21T07:40:49;10.60;97.40
52189;DHT22;38162;45.926;13.608;2023-03-21T07:43:16;10.60;97.30
52189;DHT22;38162;45.926;13.608;2023-03-21T07:45:42;10.70;97.00
52189;DHT22;38162;45.926;13.608;2023-03-21T07:48:12;10.80;96.90
52189;DHT22;38162;45.926;13.608;2023-03-21T07:50:39;10.90;97.10
52189;DHT22;38162;45.926;13.608;2023-03-21T07:53:06;10.90;96.70
52189;DHT22;38162;45.926;13.608;2023-03-21T07:55:31;11.00;96.50
52189;DHT22;38162;45.926;13.608;2023-03-21T07:58:03;11.10;96.20
52189;DHT22;38162;45.926;13.608;2023-03-21T08:00:30;11.20;96.10
52189;DHT22;38162;45.926;13.608;2023-03-21T08:02:57;11.30;96.10
52189;DHT22;38162;45.926;13.608;2023-03-21T08:05:28;11.30;96.00
52189;DHT22;38162;45.926;13.608;2023-03-21T08:07:55;11.40;95.80
52189;DHT22;38162;45.926;13.608;2023-03-21T08:10:21;11.60;95.60
52189;DHT22;38162;45.926;13.608;2023-03-21T08:12:46;11.60;95.50
52189;DHT22;38162;45.926;13.608;2023-03-21T08:15:13;11.70;95.40
52189;DHT22;38162;45.926;13.608;2023-03-21T08:17:39;11.80;95.60
52189;DHT22;38162;45.926;13.608;2023-03-21T08:20:07;11.90;95.50
52189;DHT22;38162;45.926;13.608;2023-03-21T08:22:34;12.00;95.50
52189;DHT22;38162;45.926;13.608;2023-03-21T08:25:01;12.10;95.10
52189;DHT22;38162;45.926;13.608;2023-03-21T08:27:28;12.10;95.00
52189;DHT22;38162;45.926;13.608;2023-03-21T08:29:54;12.20;95.10
52189;DHT22;38162;45.926;13.608;2023-03-21T08:32:20;12.20;95.10
52189;DHT22;38162;45.926;13.608;2023-03-21T08:34:50;12.30;95.10
52189;DHT22;38162;45.926;13.608;2023-03-21T08:37:16;12.40;94.90
52189;DHT22;38162;45.926;13.608;2023-03-21T08:39:42;12.50;94.50
52189;DHT22;38162;45.926;13.608;2023-03-21T08:42:08;12.60;94.30
52189;DHT22;38162;45.926;13.608;2023-03-21T08:44:33;12.70;93.60
52189;DHT22;38162;45.926;13.608;2023-03-21T08:46:59;12.80;93.30
52189;DHT22;38162;45.926;13.608;2023-03-21T08:49:25;12.80;92.80
52189;DHT22;38162;45.926;13.608;2023-03-21T08:51:55;12.90;92.10
52189;DHT22;38162;45.926;13.608;2023-03-21T08:54:21;13.00;91.90
52189;DHT22;38162;45.926;13.608;2023-03-21T08:56:47;13.10;91.50
52189;DHT22;38162;45.926;13.608;2023-03-21T08:59:13;13.20;91.40
52189;DHT22;38162;45.926;13.608;2023-03-21T09:01:40;13.30;90.90
52189;DHT22;38162;45.926;13.608;2023-03-21T09:04:06;13.40;90.50
52189;DHT22;38162;45.926;13.608;2023-03-21T09:06:36;13.50;90.40
52189;DHT22;38162;45.926;13.608;2023-03-21T09:09:02;13.60;90.00
52189;DHT22;38162;45.926;13.608;2023-03-21T09:11:30;13.70;89.50
52189;DHT22;38162;45.926;13.608;2023-03-21T09:13:55;13.80;89.10
52189;DHT22;38162;45.926;13.608;2023-03-21T09:16:21;13.90;88.50
52189;DHT22;38162;45.926;13.608;2023-03-21T09:18:49;14.00;87.90
52189;DHT22;38162;45.926;13.608;2023-03-21T09:21:20;14.00;87.10
52189;DHT22;38162;45.926;13.608;2023-03-21T09:23:48;14.10;87.60
52189;DHT22;38162;45.926;13.608;2023-03-21T09:26:16;14.20;87.80
52189;DHT22;38162;45.926;13.608;2023-03-21T09:28:42;14.30;86.90
52189;DHT22;38162;45.926;13.608;2023-03-21T09:31:08;14.40;87.00
52189;DHT22;38162;45.926;13.608;2023-03-21T09:33:37;14.50;86.80
52189;DHT22;38162;45.926;13.608;2023-03-21T09:36:05;14.60;86.80
52189;DHT22;38162;45.926;13.608;2023-03-21T09:38:36;14.70;87.10
52189;DHT22;38162;45.926;13.608;2023-03-21T09:46:51;14.90;84.60
52189;DHT22;38162;45.926;13.608;2023-03-21T09:49:30;15.10;85.40
52189;DHT22;38162;45.926;13.608;2023-03-21T09:52:04;15.20;83.90
52189;DHT22;38162;45.926;13.608;2023-03-21T09:54:41;15.30;83.50
52189;DHT22;38162;45.926;13.608;2023-03-21T09:59:49;15.50;83.50
52189;DHT22;38162;45.926;13.608;2023-03-21T10:05:16;15.70;79.90
52189;DHT22;38162;45.926;13.608;2023-03-21T10:10:29;15.90;75.30
52189;DHT22;38162;45.926;13.608;2023-03-21T10:12:56;16.00;74.80
52189;DHT22;38162;45.926;13.608;2023-03-21T10:15:25;16.00;74.10
52189;DHT22;38162;45.926;13.608;2023-03-21T10:20:34;16.20;71.90
52189;DHT22;38162;45.926;13.608;2023-03-21T10:23:03;16.30;71.90
52189;DHT22;38162;45.926;13.608;2023-03-21T10:25:35;16.40;70.40
52189;DHT22;38162;45.926;13.608;2023-03-21T10:28:05;16.50;69.30
52189;DHT22;38162;45.926;13.608;2023-03-21T10:33:12;16.80;68.40
52189;DHT22;38162;45.926;13.608;2023-03-21T10:35:41;16.70;66.20
52189;DHT22;38162;45.926;13.608;2023-03-21T10:38:14;16.80;66.30
52189;DHT22;38162;45.926;13.608;2023-03-21T10:40:41;16.90;65.80
52189;DHT22;38162;45.926;13.608;2023-03-21T10:45:51;17.10;64.80
52189;DHT22;38162;45.926;13.608;2023-03-21T10:48:17;17.20;63.90
52189;DHT22;38162;45.926;13.608;2023-03-21T10:50:46;17.30;64.80
52189;DHT22;38162;45.926;13.608;2023-03-21T10:53:22;17.40;65.10
52189;DHT22;38162;45.926;13.608;2023-03-21T10:55:53;17.50;64.60
52189;DHT22;38162;45.926;13.608;2023-03-21T10:58:24;17.60;63.80
52189;DHT22;38162;45.926;13.608;2023-03-21T11:01:01;17.60;63.30
52189;DHT22;38162;45.926;13.608;2023-03-21T11:03:35;17.70;62.30
52189;DHT22;38162;45.926;13.608;2023-03-21T11:08:44;17.90;61.70
52189;DHT22;38162;45.926;13.608;2023-03-21T11:11:19;18.00;62.60
52189;DHT22;38162;45.926;13.608;2023-03-21T11:13:46;18.10;62.00
52189;DHT22;38162;45.926;13.608;2023-03-21T11:16:31;18.20;61.60
52189;DHT22;38162;45.926;13.608;2023-03-21T11:19:10;18.30;61.40
52189;DHT22;38162;45.926;13.608;2023-03-21T11:21:37;18.40;60.80
52189;DHT22;38162;45.926;13.608;2023-03-21T11:24:04;18.50;59.00
52189;DHT22;38162;45.926;13.608;2023-03-21T11:26:35;18.60;58.80
52189;DHT22;38162;45.926;13.608;2023-03-21T11:31:48;18.80;58.70
52189;DHT22;38162;45.926;13.608;2023-03-21T11:34:27;18.80;57.90
52189;DHT22;38162;45.926;13.608;2023-03-21T11:36:58;18.90;58.10
52189;DHT22;38162;45.926;13.608;2023-03-21T11:39:33;19.00;57.30
52189;DHT22;38162;45.926;13.608;2023-03-21T11:42:01;19.10;55.70
52189;DHT22;38162;45.926;13.608;2023-03-21T11:44:29;19.20;55.40
52189;DHT22;38162;45.926;13.608;2023-03-21T11:46:55;19.30;54.80
52189;DHT22;38162;45.926;13.608;2023-03-21T11:49:22;19.30;55.00
52189;DHT22;38162;45.926;13.608;2023-03-21T11:52:40;19.40;54.70
52189;DHT22;38162;45.926;13.608;2023-03-21T11:55:25;19.50;53.80
52189;DHT22;38162;45.926;13.608;2023-03-21T11:58:22;19.70;52.20
52189;DHT22;38162;45.926;13.608;2023-03-21T12:00:56;19.70;53.20
52189;DHT22;38162;45.926;13.608;2023-03-21T12:06:25;19.90;52.70
52189;DHT22;38162;45.926;13.608;2023-03-21T12:17:35;20.20;52.40
52189;DHT22;38162;45.926;13.608;2023-03-21T12:22:58;20.40;53.90
52189;DHT22;38162;45.926;13.608;2023-03-21T12:25:38;20.50;53.40
52189;DHT22;38162;45.926;13.608;2023-03-21T12:31:14;20.70;51.40
52189;DHT22;38162;45.926;13.608;2023-03-21T12:39:35;20.80;51.20
52189;DHT22;38162;45.926;13.608;2023-03-21T12:44:38;21.00;52.10
52189;DHT22;38162;45.926;13.608;2023-03-21T12:47:12;21.00;52.10
52189;DHT22;38162;45.926;13.608;2023-03-21T12:49:57;21.10;51.20
52189;DHT22;38162;45.926;13.608;2023-03-21T12:52:38;21.20;50.90
52189;DHT22;38162;45.926;13.608;2023-03-21T12:57:51;21.30;50.10
52189;DHT22;38162;45.926;13.608;2023-03-21T13:02:52;21.40;50.50
52189;DHT22;38162;45.926;13.608;2023-03-21T13:05:25;21.40;49.00
52189;DHT22;38162;45.926;13.608;2023-03-21T13:08:06;21.40;48.30
52189;DHT22;38162;45.926;13.608;2023-03-21T13:10:34;21.50;48.40
52189;DHT22;38162;45.926;13.608;2023-03-21T13:18:37;21.60;48.00
52189;DHT22;38162;45.926;13.608;2023-03-21T13:24:02;21.60;48.70
52189;DHT22;38162;45.926;13.608;2023-03-21T13:26:37;21.70;47.30
52189;DHT22;38162;45.926;13.608;2023-03-21T13:29:21;21.60;48.30
52189;DHT22;38162;45.926;13.608;2023-03-21T13:31:51;21.60;47.50
52189;DHT22;38162;45.926;13.608;2023-03-21T13:34:20;21.60;47.40
52189;DHT22;38162;45.926;13.608;2023-03-21T13:36:49;21.60;47.80
52189;DHT22;38162;45.926;13.608;2023-03-21T13:39:26;21.60;46.70
52189;DHT22;38162;45.926;13.608;2023-03-21T13:41:53;21.60;48.00
52189;DHT22;38162;45.926;13.608;2023-03-21T13:50:21;21.60;47.40
52189;DHT22;38162;45.926;13.608;2023-03-21T13:55:46;21.60;46.50
52189;DHT22;38162;45.926;13.608;2023-03-21T13:58:22;21.60;47.20
52189;DHT22;38162;45.926;13.608;2023-03-21T14:03:46;21.60;46.50
52189;DHT22;38162;45.926;13.608;2023-03-21T14:06:14;21.50;46.60
52189;DHT22;38162;45.926;13.608;2023-03-21T14:08:44;21.60;46.10
52189;DHT22;38162;45.926;13.608;2023-03-21T14:11:18;21.60;46.10
52189;DHT22;38162;45.926;13.608;2023-03-21T14:13:44;21.60;45.90
52189;DHT22;38162;45.926;13.608;2023-03-21T14:16:15;21.50;46.40
52189;DHT22;38162;45.926;13.608;2023-03-21T14:18:53;21.50;47.40
52189;DHT22;38162;45.926;13.608;2023-03-21T14:26:34;21.50;45.00
52189;DHT22;38162;45.926;13.608;2023-03-21T14:29:02;21.50;46.60
52189;DHT22;38162;45.926;13.608;2023-03-21T14:31:29;21.50;46.60
52189;DHT22;38162;45.926;13.608;2023-03-21T14:33:58;21.50;46.00
52189;DHT22;38162;45.926;13.608;2023-03-21T14:36:31;21.40;45.50
52189;DHT22;38162;45.926;13.608;2023-03-21T14:41:29;21.40;46.00
52189;DHT22;38162;45.926;13.608;2023-03-21T14:44:24;21.40;46.70
52189;DHT22;38162;45.926;13.608;2023-03-21T14:47:36;21.40;46.70
52189;DHT22;38162;45.926;13.608;2023-03-21T14:49:37;21.40;45.70
52189;DHT22;38162;45.926;13.608;2023-03-21T14:54:50;21.40;46.70
52189;DHT22;38162;45.926;13.608;2023-03-21T14:57:22;21.40;46.10
52189;DHT22;38162;45.926;13.608;2023-03-21T14:59:51;21.40;46.60
52189;DHT22;38162;45.926;13.608;2023-03-21T15:02:26;21.40;45.40
52189;DHT22;38162;45.926;13.608;2023-03-21T15:04:55;21.30;46.60
52189;DHT22;38162;45.926;13.608;2023-03-21T15:07:31;21.30;45.50
52189;DHT22;38162;45.926;13.608;2023-03-21T15:10:00;21.20;45.80
52189;DHT22;38162;45.926;13.608;2023-03-21T15:12:28;21.20;46.20
52189;DHT22;38162;45.926;13.608;2023-03-21T15:14:55;21.20;46.30
52189;DHT22;38162;45.926;13.608;2023-03-21T15:17:21;21.20;46.10
52189;DHT22;38162;45.926;13.608;2023-03-21T15:19:48;21.10;46.20
52189;DHT22;38162;45.926;13.608;2023-03-21T15:24:52;21.10;45.70
52189;DHT22;38162;45.926;13.608;2023-03-21T15:27:23;21.10;46.50
52189;DHT22;38162;45.926;13.608;2023-03-21T15:29:52;21.00;46.20
52189;DHT22;38162;45.926;13.608;2023-03-21T15:32:21;21.00;46.20
52189;DHT22;38162;45.926;13.608;2023-03-21T15:34:48;21.00;47.30
52189;DHT22;38162;45.926;13.608;2023-03-21T15:37:26;20.90;47.80
52189;DHT22;38162;45.926;13.608;2023-03-21T15:39:53;20.80;47.90
52189;DHT22;38162;45.926;13.608;2023-03-21T15:42:33;20.80;48.20
52189;DHT22;38162;45.926;13.608;2023-03-21T15:45:07;20.70;48.70
52189;DHT22;38162;45.926;13.608;2023-03-21T15:48:06;20.60;49.00
52189;DHT22;38162;45.926;13.608;2023-03-21T15:51:10;20.60;49.00
52189;DHT22;38162;45.926;13.608;2023-03-21T15:53:32;20.60;49.20
52189;DHT22;38162;45.926;13.608;2023-03-21T15:55:59;20.50;49.60
52189;DHT22;38162;45.926;13.608;2023-03-21T15:58:35;20.50;49.60
52189;DHT22;38162;45.926;13.608;2023-03-21T16:01:05;20.40;49.70
52189;DHT22;38162;45.926;13.608;2023-03-21T16:03:36;20.40;50.00
52189;DHT22;38162;45.926;13.608;2023-03-21T16:06:07;20.30;49.70
52189;DHT22;38162;45.926;13.608;2023-03-21T16:11:36;20.20;49.60
52189;DHT22;38162;45.926;13.608;2023-03-21T16:14:02;20.20;49.90
52189;DHT22;38162;45.926;13.608;2023-03-21T16:16:29;20.20;49.40
52189;DHT22;38162;45.926;13.608;2023-03-21T16:18:56;20.20;50.00
52189;DHT22;38162;45.926;13.608;2023-03-21T16:21:28;20.10;48.80
52189;DHT22;38162;45.926;13.608;2023-03-21T16:23:55;20.10;49.30
52189;DHT22;38162;45.926;13.608;2023-03-21T16:26:29;20.00;49.50
52189;DHT22;38162;45.926;13.608;2023-03-21T16:28:55;20.00;50.40
52189;DHT22;38162;45.926;13.608;2023-03-21T16:31:27;19.90;50.80
52189;DHT22;38162;45.926;13.608;2023-03-21T16:33:53;19.90;50.70
52189;DHT22;38162;45.926;13.608;2023-03-21T16:36:31;19.80;51.00
52189;DHT22;38162;45.926;13.608;2023-03-21T16:38:57;19.70;51.30
52189;DHT22;38162;45.926;13.608;2023-03-21T16:41:25;19.70;51.70
52189;DHT22;38162;45.926;13.608;2023-03-21T16:43:51;19.60;52.30
52189;DHT22;38162;45.926;13.608;2023-03-21T16:46:23;19.60;52.80
52189;DHT22;38162;45.926;13.608;2023-03-21T16:48:51;19.50;53.20
52189;DHT22;38162;45.926;13.608;2023-03-21T16:51:22;19.50;53.60
52189;DHT22;38162;45.926;13.608;2023-03-21T16:53:52;19.40;54.00
52189;DHT22;38162;45.926;13.608;2023-03-21T16:56:35;19.40;54.60
52189;DHT22;38162;45.926;13.608;2023-03-21T16:59:02;19.30;55.00
52189;DHT22;38162;45.926;13.608;2023-03-21T17:01:27;19.30;55.50
52189;DHT22;38162;45.926;13.608;2023-03-21T17:03:55;19.30;55.90
52189;DHT22;38162;45.926;13.608;2023-03-21T17:06:27;19.20;56.10
52189;DHT22;38162;45.926;13.608;2023-03-21T17:08:55;19.20;56.30
52189;DHT22;38162;45.926;13.608;2023-03-21T17:11:23;19.20;56.80
52189;DHT22;38162;45.926;13.608;2023-03-21T17:13:52;19.10;57.20
52189;DHT22;38162;45.926;13.608;2023-03-21T17:16:20;19.10;57.70
52189;DHT22;38162;45.926;13.608;2023-03-21T17:18:47;19.10;58.30
52189;DHT22;38162;45.926;13.608;2023-03-21T17:21:24;19.00;58.70
52189;DHT22;38162;45.926;13.608;2023-03-21T17:23:50;18.90;59.20
52189;DHT22;38162;45.926;13.608;2023-03-21T17:26:22;18.90;59.60
52189;DHT22;38162;45.926;13.608;2023-03-21T17:28:48;18.90;60.60
52189;DHT22;38162;45.926;13.608;2023-03-21T17:31:16;18.80;60.80
52189;DHT22;38162;45.926;13.608;2023-03-21T17:33:43;18.70;61.30
52189;DHT22;38162;45.926;13.608;2023-03-21T17:36:22;18.70;61.80
52189;DHT22;38162;45.926;13.608;2023-03-21T17:38:49;18.60;62.20
52189;DHT22;38162;45.926;13.608;2023-03-21T17:41:19;18.50;62.50
52189;DHT22;38162;45.926;13.608;2023-03-21T17:43:45;18.50;62.70